KORD

Chicago O'hare International Airport

Chicago, Illinois, USA
METAR KORD 121851Z 23018G26KT 10SM FEW030 SCT070 BKN090 03/M03 A2972 RMK AO2 PK WND 23026/1851 SLP071 T00281033
Observed Flight Rules
Dec-12 @ 18:51 UTC (57 minutes ago) Visual Flight Rules
Wind Visibility Clouds
230° at 18 knots
 Gusting to 26 knots
10 miles
  • Few at 3,000' AGL
  • Scattered at 7,000' AGL
  • Broken at 9,000' AGL
Temperatures Readings
Current 3°C / 37°F
Dewpoint -3°C / 27°F
Humidity 65%
Altimeter 29.72" Hg
Pressure 1007.1 hPa
Elevation 200
METAR KORD 121851Z 23018G26KT 10SM FEW030 SCT070 BKN090 03/M03 A2972 RMK AO2 PK WND 23026/1851 SLP071 T00281033
Observed Flight Rules
Dec-12 @ 18:51 UTC
(57 minutes ago)
VFR
Wind Visibility
230° at 18 knots
 Gusting to 26 knots
10 miles
Clouds
  • Few at 3,000' AGL
  • Scattered at 7,000' AGL
  • Broken at 9,000' AGL
Temperature Dewpoint
3°C / 37°F -3°C / 27°F
Humidity Altimeter Pressure
65% 29.72" Hg 1007.1 hPa